Nearby METAR Reports

 

KMNN - Marion, Ohio, USA
Distance from station: ENE 4mi, 6km
Updated: 10/25/2020 10:53pm
Overcast
Overcast
 Wind from SE
Wind: SE 7 mph , 11 km/h
Temperature: 48°F , 9°C
Wind Chill: 45°F , 7°C
Dew Point: 39°F , 4°C
Humidity: 71%
Barometer: 30.07 inHg , 1018.3 hPa
Clouds: Overcast
Visibility: 10 miles , 16 km
Cloud details: Overcast 1600 ft
2020/10/26 02:53 KMNN 260253Z AUTO 14006KT 10SM OVC016 09/04 A3007 RMK AO2 SLP187 T00890044 58001
KDLZ - Delaware, Ohio, USA
Distance from station: S 21mi, 34km
Updated: 10/25/2020 10:55pm
Overcast
Overcast
 Wind from E
Wind: E 5 mph , 7 km/h
Temperature: 46°F , 8°C
Wind Chill: 44°F , 7°C
Dew Point: 41°F , 5°C
Humidity: 82%
Barometer: 30.06 inHg , 1017.9 hPa
Clouds: Overcast
Visibility: 10 miles , 16 km
Cloud details: Overcast 2100 ft
2020/10/26 02:55 KDLZ 260255Z AUTO 10004KT 10SM OVC021 08/05 A3006 RMK AO2
 
KMRT - Marysville, Ohio, USA
Distance from station: SSW 28mi, 45km
Updated: 10/25/2020 10:55pm
Overcast
Overcast
 Wind from calm
Wind: Calm
Temperature: 48°F , 9°C
Dew Point: 39°F , 4°C
Humidity: 71%
Barometer: 30.06 inHg , 1017.9 hPa
Clouds: Overcast
Visibility: 10 miles , 16 km
Cloud details: Overcast 2000 ft
2020/10/26 02:55 KMRT 260255Z AUTO 00000KT 10SM OVC020 09/04 A3006 RMK AO2 T00860038
KOSU - Columbus/St Univ, Ohio, USA
Distance from station: S 35mi, 56km
Updated: 10/25/2020 10:53pm
Overcast
Overcast
 Wind from E
Wind: E 8 mph , 13 km/h
Temperature: 48°F , 9°C
Wind Chill: 44°F , 7°C
Dew Point: 43°F , 6°C
Humidity: 82%
Barometer: 30.05 inHg , 1017.6 hPa
Clouds: Overcast
Visibility: 10 miles , 16 km
Cloud details: Overcast 2900 ft
2020/10/26 02:53 KOSU 260253Z 09007KT 10SM OVC029 09/06 A3005 RMK AO2 SLP178 T00940056 58005
 
KMFD - Mansfield, Ohio, USA
Distance from station: ENE 36mi, 57km
Updated: 10/25/2020 10:52pm
Overcast
Overcast
 Wind from E
Wind: E 8 mph , 13 km/h
Temperature: 46°F , 8°C
Wind Chill: 42°F , 6°C
Dew Point: 43°F , 6°C
Humidity: 87%
Barometer: 30.07 inHg , 1018.3 hPa
Clouds: Overcast
Visibility: 10 miles , 16 km
Cloud details: Overcast 1400 ft
2020/10/26 02:52 KMFD 260252Z AUTO 10007KT 10SM OVC014 08/06 A3007 RMK AO2 SLP187 T00780056 58001 $
K4I3 - Mt Vernon/Knox, Ohio, USA
Distance from station: ESE 36mi, 58km
Updated: 10/25/2020 10:55pm
Overcast
Overcast
 Wind from calm
Wind: Calm
Temperature: 45°F , 7°C
Dew Point: 41°F , 5°C
Humidity: 87%
Barometer: 30.08 inHg , 1018.6 hPa
Clouds: Overcast
Visibility: 10 miles , 16 km
Cloud details: Overcast 1800 ft
2020/10/26 02:55 K4I3 260255Z AUTO 00000KT 10SM OVC018 07/05 A3008 RMK AO2
 
KEDJ - Bellefontaine, Ohio, USA
Distance from station: WSW 39mi, 63km
Updated: 10/25/2020 10:55pm
Overcast
Overcast
 Wind from calm
Wind: Calm
Temperature: 46°F , 8°C
Dew Point: 37°F , 3°C
Humidity: 71%
Barometer: 30.08 inHg , 1018.6 hPa
Clouds: Overcast
Visibility: 10 miles , 16 km
Cloud details: Overcast 2500 ft
2020/10/26 02:55 KEDJ 260255Z AUTO 00000KT 10SM OVC025 08/03 A3008 RMK AO1
KFDY - Findlay, Ohio, USA
Distance from station: NW 41mi, 66km
Updated: 10/25/2020 10:53pm
Overcast
Overcast
 Wind from ENE
Wind: ENE 6 mph , 9 km/h
Temperature: 50°F , 10°C
Wind Chill: 48°F , 9°C
Dew Point: 36°F , 2°C
Humidity: 58%
Barometer: 30.07 inHg , 1018.3 hPa
Clouds: Overcast
Visibility: 10 miles , 16 km
Cloud details: Overcast 4000 ft
2020/10/26 02:53 KFDY 260253Z AUTO 06005KT 10SM OVC040 10/02 A3007 RMK AO2 SLP182 T01000022 55001
 
KCMH - Columbus, Ohio, USA
Distance from station: SSE 43mi, 69km
Updated: 10/25/2020 10:51pm
Overcast
Overcast
 Wind from ENE
Wind: ENE 6 mph , 9 km/h
Temperature: 48°F , 9°C
Wind Chill: 45°F , 7°C
Dew Point: 43°F , 6°C
Humidity: 82%
Barometer: 30.06 inHg , 1017.9 hPa
Clouds: Overcast
Visibility: 10 miles , 16 km
Cloud details: Overcast 2600 ft
2020/10/26 02:51 KCMH 260251Z 07005KT 10SM OVC026 09/06 A3006 RMK AO2 SLP182 T00890056 55002 $
KAOH - Lima, Ohio, USA
Distance from station: W 47mi, 76km
Updated: 10/25/2020 10:53pm

 
Barometer: 30.08 inHg , 1018.6 hPa
2020/10/26 02:53 KAOH 260253Z AUTO A3008 RMK AO2 SLPNO 53003 PWINO FZRANO PNO $
 
KTZR - Columbus/Bolton, Ohio, USA
Distance from station: S 48mi, 77km
Updated: 10/25/2020 10:55pm
Overcast
Overcast
 Wind from E
Wind: E 5 mph , 7 km/h
Temperature: 48°F , 9°C
Wind Chill: 46°F , 8°C
Dew Point: 43°F , 6°C
Humidity: 82%
Barometer: 30.06 inHg , 1017.9 hPa
Clouds: Overcast
Visibility: 10 miles , 16 km
Cloud details: Overcast 2500 ft
2020/10/26 02:55 KTZR 260255Z AUTO 10004KT 10SM OVC025 09/06 A3006 RMK AO2 T00900055
KUYF - London, Ohio, USA
Distance from station: SSW 49mi, 78km
Updated: 10/25/2020 10:55pm
Overcast
Overcast
 Wind from ESE
Wind: ESE 5 mph , 7 km/h
Temperature: 46°F , 8°C
Wind Chill: 44°F , 7°C
Dew Point: 41°F , 5°C
Humidity: 82%
Barometer: 30.06 inHg , 1017.9 hPa
Clouds: Overcast
Visibility: 10 miles , 16 km
Cloud details: Overcast 2200 ft
2020/10/26 02:55 KUYF 260255Z AUTO 12004KT 10SM OVC022 08/05 A3006 RMK AO2